Time,TemperatureF,DewpointF,PressureIn,WindDirection,WindDirectionDegrees,WindSpeedMPH,WindSpeedGustMPH,Humidity,HourlyPrecipIn,Conditions,Clouds,dailyrainin,SoftwareType,DateUTC
2013-06-24 00:01:00,55.0,48.0,29.67,ESE,115,0.0,0.0,77,0.00,,,0.00,,2013-06-24 06:01:00,
2013-06-24 00:12:00,55.0,48.0,29.67,ESE,115,0.0,0.0,77,0.00,,,0.00,,2013-06-24 06:12:00,
2013-06-24 00:22:00,55.0,49.0,29.67,ESE,115,0.0,0.0,79,0.00,,,0.00,,2013-06-24 06:22:00,
2013-06-24 00:33:00,55.0,49.0,29.67,ESE,115,0.0,0.0,79,0.00,,,0.00,,2013-06-24 06:33:00,
2013-06-24 00:54:00,55.0,47.0,29.69,ESE,115,0.0,0.0,75,0.00,,,0.00,,2013-06-24 06:54:00,
2013-06-24 01:02:00,55.0,47.0,29.69,ESE,115,0.0,0.0,75,0.00,,,0.00,,2013-06-24 07:02:00,
2013-06-24 01:13:00,55.0,47.0,29.69,ESE,115,0.0,0.0,75,0.00,,,0.00,,2013-06-24 07:13:00,
2013-06-24 01:25:00,54.0,47.0,29.67,ESE,115,0.0,0.0,76,0.00,,,0.00,,2013-06-24 07:25:00,
2013-06-24 01:33:00,54.0,47.0,29.67,ESE,115,0.0,0.0,76,0.00,,,0.00,,2013-06-24 07:33:00,
2013-06-24 01:49:00,54.0,47.0,29.67,ESE,115,0.0,0.0,76,0.00,,,0.00,,2013-06-24 07:49:00,
2013-06-24 01:55:00,54.0,48.0,29.67,ESE,115,0.0,0.0,80,0.00,,,0.00,,2013-06-24 07:55:00,
2013-06-24 02:01:00,54.0,48.0,29.67,ESE,115,0.0,0.0,80,0.00,,,0.00,,2013-06-24 08:01:00,
2013-06-24 02:13:00,54.0,48.0,29.67,ESE,115,0.0,0.0,80,0.00,,,0.00,,2013-06-24 08:13:00,
2013-06-24 02:22:00,53.0,47.0,29.65,ESE,115,0.0,0.0,80,0.00,,,0.00,,2013-06-24 08:22:00,
2013-06-24 02:33:00,53.0,47.0,29.65,ESE,115,0.0,0.0,80,0.00,,,0.00,,2013-06-24 08:33:00,
2013-06-24 02:47:00,53.0,47.0,29.65,ESE,115,0.0,0.0,80,0.00,,,0.00,,2013-06-24 08:47:00,
2013-06-24 03:02:00,53.0,48.0,29.64,ESE,115,0.0,0.0,82,0.00,,,0.00,,2013-06-24 09:02:00,
2013-06-24 03:13:00,53.0,48.0,29.64,ESE,115,0.0,0.0,82,0.00,,,0.00,,2013-06-24 09:13:00,
2013-06-24 03:23:00,52.0,47.0,29.62,ESE,115,0.0,0.0,83,0.00,,,0.00,,2013-06-24 09:23:00,
2013-06-24 03:47:00,52.0,47.0,29.62,ESE,115,0.0,0.0,83,0.00,,,0.00,,2013-06-24 09:47:00,
2013-06-24 03:57:00,52.0,47.0,29.62,ESE,115,0.0,0.0,83,0.00,,,0.00,,2013-06-24 09:57:00,
2013-06-24 04:13:00,52.0,47.0,29.62,ESE,115,0.0,0.0,83,0.00,,,0.00,,2013-06-24 10:13:00,
2013-06-24 04:22:00,51.0,46.0,29.63,ESE,115,0.0,0.0,82,0.00,,,0.00,,2013-06-24 10:22:00,
2013-06-24 04:51:00,51.0,46.0,29.63,ESE,115,0.0,0.0,82,0.00,,,0.00,,2013-06-24 10:51:00,
2013-06-24 05:02:00,50.0,45.0,29.62,ESE,115,0.0,0.0,82,0.00,,,0.00,,2013-06-24 11:02:00,
2013-06-24 05:13:00,50.0,45.0,29.62,ESE,115,0.0,0.0,82,0.00,,,0.00,,2013-06-24 11:13:00,
2013-06-24 05:24:00,50.0,45.0,29.62,ESE,115,0.0,0.0,82,0.00,,,0.00,,2013-06-24 11:24:00,
2013-06-24 05:56:00,50.0,45.0,29.62,ESE,115,0.0,0.0,82,0.00,,,0.00,,2013-06-24 11:56:00,
2013-06-24 06:14:00,50.0,45.0,29.62,ESE,115,0.0,0.0,82,0.00,,,0.00,,2013-06-24 12:14:00,
2013-06-24 06:23:00,50.0,45.0,29.61,ESE,115,0.0,0.0,83,0.00,,,0.00,,2013-06-24 12:23:00,
2013-06-24 06:34:00,50.0,45.0,29.61,ESE,115,0.0,0.0,83,0.00,,,0.00,,2013-06-24 12:34:00,
2013-06-24 06:49:00,50.0,45.0,29.61,ESE,115,0.0,0.0,83,0.00,,,0.00,,2013-06-24 12:49:00,
2013-06-24 06:54:00,50.0,45.0,29.61,ESE,115,0.0,0.0,84,0.00,,,0.00,,2013-06-24 12:54:00,
2013-06-24 07:01:00,50.0,45.0,29.61,ESE,115,0.0,0.0,84,0.00,,,0.00,,2013-06-24 13:01:00,
2013-06-24 07:12:00,50.0,45.0,29.61,ESE,115,0.0,0.0,84,0.00,,,0.00,,2013-06-24 13:12:00,
2013-06-24 07:45:00,51.0,46.0,29.60,ESE,115,0.0,0.0,83,0.00,,,0.00,,2013-06-24 13:45:00,
2013-06-24 08:01:00,51.0,47.0,29.62,ESE,115,0.0,0.0,86,0.00,,,0.00,,2013-06-24 14:01:00,
2013-06-24 08:13:00,51.0,47.0,29.62,ESE,115,0.0,0.0,86,0.00,,,0.00,,2013-06-24 14:13:00,
2013-06-24 08:46:00,52.0,49.0,29.60,ESE,115,0.0,0.0,89,0.00,,,0.00,,2013-06-24 14:46:00,
2013-06-24 08:57:00,53.0,50.0,29.63,ESE,115,0.0,0.0,89,0.01,,,0.01,,2013-06-24 14:57:00,
2013-06-24 09:12:00,53.0,50.0,29.63,ESE,115,0.0,0.0,89,0.01,,,0.01,,2013-06-24 15:12:00,
2013-06-24 09:24:00,53.0,50.0,29.62,ESE,115,0.0,0.0,91,0.01,,,0.01,,2013-06-24 15:24:00,
2013-06-24 09:34:00,53.0,50.0,29.62,ESE,115,0.0,0.0,91,0.01,,,0.01,,2013-06-24 15:34:00,
2013-06-24 09:47:00,53.0,50.0,29.62,ESE,115,0.0,0.0,91,0.01,,,0.01,,2013-06-24 15:47:00,
2013-06-24 09:55:00,54.0,51.0,29.61,ESE,115,0.0,0.0,89,0.00,,,0.01,,2013-06-24 15:55:00,
2013-06-24 10:02:00,54.0,51.0,29.61,ESE,115,0.0,0.0,89,0.00,,,0.01,,2013-06-24 16:02:00,
2013-06-24 10:23:00,55.0,51.0,29.61,ESE,115,0.0,0.0,86,0.00,,,0.01,,2013-06-24 16:23:00,
2013-06-24 10:33:00,55.0,51.0,29.61,ESE,115,0.0,0.0,86,0.00,,,0.01,,2013-06-24 16:33:00,
2013-06-24 10:45:00,55.0,51.0,29.61,ESE,115,0.0,0.0,86,0.00,,,0.01,,2013-06-24 16:45:00,
2013-06-24 10:55:00,54.0,50.0,29.62,ESE,115,0.0,0.0,87,0.01,,,0.02,,2013-06-24 16:55:00,
2013-06-24 11:02:00,54.0,50.0,29.62,ESE,115,0.0,0.0,87,0.01,,,0.02,,2013-06-24 17:02:00,
2013-06-24 11:23:00,54.0,51.0,29.62,ESE,115,0.0,0.0,88,0.01,,,0.02,,2013-06-24 17:23:00,
2013-06-24 11:33:00,54.0,51.0,29.62,ESE,115,0.0,0.0,88,0.01,,,0.02,,2013-06-24 17:33:00,
2013-06-24 11:47:00,54.0,51.0,29.62,ESE,115,0.0,0.0,88,0.01,,,0.02,,2013-06-24 17:47:00,
2013-06-24 11:56:00,54.0,51.0,29.64,ESE,115,0.0,1.0,89,0.02,,,0.04,,2013-06-24 17:56:00,
2013-06-24 12:01:00,54.0,51.0,29.64,ESE,115,0.0,1.0,89,0.02,,,0.04,,2013-06-24 18:01:00,
2013-06-24 12:14:00,54.0,51.0,29.64,ESE,115,0.0,1.0,89,0.02,,,0.04,,2013-06-24 18:14:00,
2013-06-24 12:23:00,54.0,51.0,29.63,ESE,115,0.0,1.0,89,0.04,,,0.06,,2013-06-24 18:23:00,
2013-06-24 12:47:00,54.0,51.0,29.63,ESE,115,0.0,1.0,89,0.04,,,0.06,,2013-06-24 18:47:00,
2013-06-24 13:02:00,54.0,50.0,29.63,ENE,66,1.0,4.0,86,0.06,,,0.10,,2013-06-24 19:02:00,
2013-06-24 13:12:00,54.0,50.0,29.63,ENE,66,1.0,4.0,86,0.06,,,0.10,,2013-06-24 19:12:00,
2013-06-24 13:24:00,54.0,51.0,29.63,NW,305,0.0,3.0,90,0.05,,,0.11,,2013-06-24 19:24:00,
2013-06-24 13:33:00,54.0,51.0,29.63,NW,305,0.0,3.0,90,0.05,,,0.11,,2013-06-24 19:33:00,
2013-06-24 13:46:00,54.0,51.0,29.63,NW,305,0.0,3.0,90,0.05,,,0.11,,2013-06-24 19:46:00,
2013-06-24 14:02:00,57.0,52.0,29.61,ENE,75,0.0,2.0,82,0.01,,,0.11,,2013-06-24 20:02:00,
2013-06-24 14:11:00,57.0,52.0,29.61,ENE,75,0.0,2.0,82,0.01,,,0.11,,2013-06-24 20:11:00,
2013-06-24 14:33:00,60.0,54.0,29.63,NNW,331,1.0,3.0,80,0.00,,,0.11,,2013-06-24 20:33:00,
2013-06-24 14:46:00,60.0,54.0,29.63,NNW,331,1.0,3.0,80,0.00,,,0.11,,2013-06-24 20:46:00,
2013-06-24 14:55:00,61.0,53.0,29.62,NNW,347,2.0,4.0,76,0.00,,,0.11,,2013-06-24 20:55:00,
2013-06-24 15:01:00,61.0,53.0,29.62,NNW,347,2.0,4.0,76,0.00,,,0.11,,2013-06-24 21:01:00,
2013-06-24 15:12:00,61.0,53.0,29.62,NNW,347,2.0,4.0,76,0.00,,,0.11,,2013-06-24 21:12:00,
2013-06-24 15:23:00,62.0,54.0,29.61,ENE,63,0.0,5.0,76,0.00,,,0.11,,2013-06-24 21:23:00,
2013-06-24 15:33:00,62.0,54.0,29.61,ENE,63,0.0,5.0,76,0.00,,,0.11,,2013-06-24 21:33:00,
2013-06-24 15:47:00,62.0,54.0,29.61,ENE,63,0.0,5.0,76,0.00,,,0.11,,2013-06-24 21:47:00,
2013-06-24 15:54:00,60.0,54.0,29.60,East,88,0.0,2.0,80,0.00,,,0.11,,2013-06-24 21:54:00,
2013-06-24 16:01:00,60.0,54.0,29.60,East,88,0.0,2.0,80,0.00,,,0.11,,2013-06-24 22:01:00,
2013-06-24 16:13:00,60.0,54.0,29.60,East,88,0.0,2.0,80,0.00,,,0.11,,2013-06-24 22:13:00,
2013-06-24 16:33:00,60.0,54.0,29.61,East,89,0.0,2.0,80,0.00,,,0.11,,2013-06-24 22:33:00,
2013-06-24 16:48:00,60.0,54.0,29.61,East,89,0.0,2.0,80,0.00,,,0.11,,2013-06-24 22:48:00,
2013-06-24 16:55:00,61.0,55.0,29.62,East,84,0.0,2.0,80,0.00,,,0.11,,2013-06-24 22:55:00,
2013-06-24 17:02:00,61.0,55.0,29.62,East,84,0.0,2.0,80,0.00,,,0.11,,2013-06-24 23:02:00,
2013-06-24 17:11:00,61.0,55.0,29.62,East,84,0.0,2.0,80,0.00,,,0.11,,2013-06-24 23:11:00,
2013-06-24 17:22:00,60.0,54.0,29.62,West,261,0.0,2.0,81,0.00,,,0.11,,2013-06-24 23:22:00,
2013-06-24 17:33:00,60.0,54.0,29.62,West,261,0.0,2.0,81,0.00,,,0.11,,2013-06-24 23:33:00,
2013-06-24 17:45:00,60.0,54.0,29.62,West,261,0.0,2.0,81,0.00,,,0.11,,2013-06-24 23:45:00,
2013-06-24 17:54:00,60.0,55.0,29.62,WNW,292,0.0,2.0,83,0.01,,,0.12,,2013-06-24 23:54:00,
2013-06-24 18:01:00,60.0,55.0,29.62,WNW,292,0.0,2.0,83,0.01,,,0.12,,2013-06-25 00:01:00,
2013-06-24 18:22:00,60.0,54.0,29.62,NW,311,0.0,0.0,81,0.01,,,0.12,,2013-06-25 00:22:00,
2013-06-24 18:32:00,60.0,54.0,29.62,NW,311,0.0,0.0,81,0.01,,,0.12,,2013-06-25 00:32:00,
2013-06-24 18:48:00,60.0,54.0,29.62,NW,311,0.0,0.0,81,0.01,,,0.12,,2013-06-25 00:48:00,
2013-06-24 18:55:00,61.0,55.0,29.63,NNW,338,0.0,3.0,82,0.00,,,0.12,,2013-06-25 00:55:00,
2013-06-24 19:01:00,61.0,55.0,29.63,NNW,338,0.0,3.0,82,0.00,,,0.12,,2013-06-25 01:01:00,
2013-06-24 19:13:00,61.0,55.0,29.63,NNW,338,0.0,3.0,82,0.00,,,0.12,,2013-06-25 01:13:00,
2013-06-24 19:22:00,60.0,54.0,29.63,WNW,287,0.0,1.0,81,0.00,,,0.12,,2013-06-25 01:22:00,
2013-06-24 19:33:00,60.0,54.0,29.63,WNW,287,0.0,1.0,81,0.00,,,0.12,,2013-06-25 01:33:00,
2013-06-24 19:45:00,60.0,54.0,29.63,WNW,287,0.0,1.0,81,0.00,,,0.12,,2013-06-25 01:45:00,
2013-06-24 19:55:00,60.0,54.0,29.64,WNW,287,0.0,0.0,82,0.00,,,0.12,,2013-06-25 01:55:00,
2013-06-24 20:02:00,60.0,54.0,29.64,WNW,287,0.0,0.0,82,0.00,,,0.12,,2013-06-25 02:02:00,
2013-06-24 20:12:00,60.0,54.0,29.64,WNW,287,0.0,0.0,82,0.00,,,0.12,,2013-06-25 02:12:00,
2013-06-24 20:23:00,59.0,54.0,29.63,NW,322,0.0,1.0,83,0.00,,,0.12,,2013-06-25 02:23:00,
2013-06-24 20:33:00,59.0,54.0,29.63,NW,322,0.0,1.0,83,0.00,,,0.12,,2013-06-25 02:33:00,
2013-06-24 20:47:00,59.0,54.0,29.63,NW,322,0.0,1.0,83,0.00,,,0.12,,2013-06-25 02:47:00,
2013-06-24 20:56:00,59.0,54.0,29.65,NW,322,0.0,0.0,85,0.00,,,0.12,,2013-06-25 02:56:00,
2013-06-24 21:01:00,59.0,54.0,29.65,NW,322,0.0,0.0,85,0.00,,,0.12,,2013-06-25 03:01:00,
2013-06-24 21:12:00,59.0,54.0,29.65,NW,322,0.0,0.0,85,0.00,,,0.12,,2013-06-25 03:12:00,
2013-06-24 21:23:00,58.0,54.0,29.63,NE,54,0.0,2.0,86,0.01,,,0.13,,2013-06-25 03:23:00,
2013-06-24 21:33:00,58.0,54.0,29.63,NE,54,0.0,2.0,86,0.01,,,0.13,,2013-06-25 03:33:00,
2013-06-24 22:00:00,56.0,53.0,29.63,NE,54,0.0,0.0,89,0.01,,,0.13,,2013-06-25 04:00:00,
2013-06-24 22:01:00,56.0,53.0,29.63,NE,54,0.0,0.0,89,0.01,,,0.13,,2013-06-25 04:01:00,
2013-06-24 22:11:00,56.0,53.0,29.63,NE,54,0.0,0.0,89,0.01,,,0.13,,2013-06-25 04:11:00,
2013-06-24 22:22:00,55.0,52.0,29.64,NE,54,0.0,0.0,89,0.00,,,0.13,,2013-06-25 04:22:00,
2013-06-24 22:33:00,55.0,52.0,29.64,NE,54,0.0,0.0,89,0.00,,,0.13,,2013-06-25 04:33:00,
2013-06-24 22:43:00,55.0,52.0,29.64,NE,54,0.0,0.0,89,0.00,,,0.13,,2013-06-25 04:43:00,
2013-06-24 22:52:00,53.0,50.0,29.66,NE,54,0.0,0.0,90,0.00,,,0.13,,2013-06-25 04:52:00,
2013-06-24 23:01:00,53.0,50.0,29.66,NE,54,0.0,0.0,90,0.00,,,0.13,,2013-06-25 05:01:00,
2013-06-24 23:11:00,53.0,50.0,29.66,NE,54,0.0,0.0,90,0.00,,,0.13,,2013-06-25 05:11:00,
2013-06-24 23:21:00,53.0,50.0,29.67,NE,54,0.0,0.0,91,0.00,,,0.13,,2013-06-25 05:21:00,
2013-06-24 23:32:00,53.0,50.0,29.67,NE,54,0.0,0.0,91,0.00,,,0.13,,2013-06-25 05:32:00,
2013-06-24 23:44:00,53.0,50.0,29.67,NE,54,0.0,0.0,91,0.00,,,0.13,,2013-06-25 05:44:00,
2013-06-24 23:52:00,53.0,51.0,29.69,ENE,65,0.0,1.0,92,0.27,,,0.40,,2013-06-25 05:52:00,